Time;durP1;ratioP1;P1;durP2;ratioP2;P2;SDS_P1;SDS_P2;PMS_P1;PMS_P2;Temp;Humidity;BMP_temperature;BMP_pressure;BME280_temperature;BME280_humidity;BME280_pressure;Samples;Min_cycle;Max_cycle;Signal;HPM_P1;HPM_P2
2022/07/06 00:01:59;;;;;;;18.40;7.50;;;19.10;55.10;;;;;;5048042;28;20284;-89
2022/07/06 00:04:26;;;;;;;14.07;5.57;;;19.10;55.60;;;;;;5038985;28;20288;-89
2022/07/06 00:06:54;;;;;;;16.70;6.97;;;19.00;55.40;;;;;;5030684;28;20280;-90
2022/07/06 00:09:24;;;;;;;13.03;6.13;;;19.00;55.60;;;;;;5049784;28;20258;-90
2022/07/06 00:11:51;;;;;;;19.83;7.97;;;18.90;55.90;;;;;;5049096;28;20201;-90
2022/07/06 00:14:19;;;;;;;10.07;5.37;;;18.90;55.60;;;;;;5036417;28;20256;-89
2022/07/06 00:16:47;;;;;;;12.73;5.90;;;18.90;56.00;;;;;;5056416;28;20223;-89
2022/07/06 00:19:14;;;;;;;13.83;6.13;;;18.80;56.10;;;;;;5055820;28;20213;-89
2022/07/06 00:21:41;;;;;;;11.13;5.63;;;18.80;56.10;;;;;;5056639;28;20262;-90
2022/07/06 00:24:10;;;;;;;12.50;6.37;;;18.80;56.30;;;;;;5051290;28;20212;-89
2022/07/06 00:26:37;;;;;;;22.83;8.93;;;18.80;56.50;;;;;;5046784;28;20198;-89
2022/07/06 00:29:04;;;;;;;8.40;5.07;;;18.70;56.50;;;;;;5047968;28;20285;-89
2022/07/06 00:31:31;;;;;;;10.03;5.23;;;18.70;56.50;;;;;;5049574;28;20784;-90
2022/07/06 00:33:58;;;;;;;14.23;6.23;;;18.70;56.80;;;;;;5046716;28;20359;-89
2022/07/06 00:36:25;;;;;;;14.03;5.67;;;18.70;56.80;;;;;;5047629;28;20205;-89
2022/07/06 00:38:52;;;;;;;11.73;5.93;;;18.60;56.90;;;;;;5048030;28;20633;-88
2022/07/06 00:42:11;;;;;;;17.93;7.17;;;18.60;57.00;;;;;;5048631;28;20301;-89
2022/07/06 00:44:39;;;;;;;12.37;6.10;;;18.60;57.70;;;;;;5028994;28;20219;-90
2022/07/06 00:47:07;;;;;;;12.50;5.27;;;18.60;57.00;;;;;;5045243;28;20279;-89
2022/07/06 00:52:36;;;;;;;11.90;5.90;;;18.60;57.20;;;;;;5003126;28;21117;-90
2022/07/06 00:55:04;;;;;;;13.03;6.77;;;18.50;56.60;;;;;;4998644;28;20343;-89
2022/07/06 00:57:30;;;;;;;13.57;6.23;;;18.50;56.80;;;;;;5010984;28;20267;-90
2022/07/06 01:00:07;;;;;;;18.60;7.33;;;18.50;57.00;;;;;;5045891;28;20226;-90
2022/07/06 01:02:37;;;;;;;23.33;9.17;;;18.50;57.40;;;;;;5047134;28;20711;-90
2022/07/06 01:05:06;;;;;;;11.87;5.97;;;18.40;56.70;;;;;;5046435;28;20209;-89
2022/07/06 01:07:34;;;;;;;14.10;6.70;;;18.40;56.80;;;;;;5046475;28;20209;-88
2022/07/06 01:10:03;;;;;;;11.73;6.07;;;18.40;56.90;;;;;;5047432;28;20653;-89
2022/07/06 01:12:31;;;;;;;13.20;6.80;;;18.40;57.10;;;;;;5047700;28;20205;-89
2022/07/06 01:15:01;;;;;;;11.17;6.17;;;18.40;57.00;;;;;;5049049;28;20285;-88
2022/07/06 01:17:31;;;;;;;23.33;9.13;;;18.30;56.90;;;;;;5047534;28;20298;-90
2022/07/06 01:19:58;;;;;;;14.87;6.83;;;18.30;57.20;;;;;;5046770;28;20615;-88
2022/07/06 01:22:30;;;;;;;26.40;9.57;;;18.30;57.10;;;;;;5047205;28;20233;-90
2022/07/06 01:24:57;;;;;;;12.77;6.03;;;18.20;57.50;;;;;;5047480;28;20286;-90
2022/07/06 01:27:24;;;;;;;14.13;6.67;;;18.20;57.30;;;;;;5047904;28;20299;-89
2022/07/06 01:29:51;;;;;;;14.90;7.20;;;18.20;57.60;;;;;;5045684;28;20228;-88
2022/07/06 01:32:25;;;;;;;19.83;8.70;;;18.10;57.70;;;;;;5047031;28;20229;-89
2022/07/06 01:34:53;;;;;;;9.97;5.80;;;18.10;57.90;;;;;;5045556;28;20316;-89
2022/07/06 01:37:20;;;;;;;19.83;8.33;;;18.10;58.10;;;;;;5048095;28;20208;-90
2022/07/06 01:39:48;;;;;;;15.00;6.17;;;18.00;58.40;;;;;;5046400;28;20239;-88
2022/07/06 01:42:17;;;;;;;15.57;6.73;;;18.00;58.50;;;;;;5046781;28;20212;-89
2022/07/06 01:44:53;;;;;;;15.63;6.93;;;18.00;57.70;;;;;;5043068;28;20292;-90
2022/07/06 01:47:20;;;;;;;12.23;6.10;;;17.90;58.30;;;;;;5043864;28;20296;-90
2022/07/06 01:49:55;;;;;;;17.90;7.27;;;17.90;57.90;;;;;;5046830;28;20327;-90
2022/07/06 01:52:49;;;;;;;14.17;6.83;;;17.90;58.00;;;;;;5030100;28;20189;-90
2022/07/06 01:55:17;;;;;;;16.30;7.07;;;17.80;58.30;;;;;;5011532;28;20307;-91
2022/07/06 01:57:44;;;;;;;14.07;6.17;;;17.80;57.80;;;;;;5046060;28;20292;-89
2022/07/06 02:00:12;;;;;;;9.57;5.50;;;17.80;58.00;;;;;;5047037;28;20290;-89
2022/07/06 02:02:39;;;;;;;12.63;6.63;;;17.70;58.20;;;;;;5048051;28;20242;-89
2022/07/06 02:05:08;;;;;;;12.40;6.27;;;17.70;58.30;;;;;;5048750;28;20253;-90
2022/07/06 02:07:35;;;;;;;10.03;6.10;;;17.70;58.50;;;;;;5045861;28;20208;-90
2022/07/06 02:10:02;;;;;;;12.97;6.20;;;17.70;58.20;;;;;;5041645;28;20228;-89
2022/07/06 02:12:30;;;;;;;11.57;5.83;;;17.60;58.10;;;;;;5047115;28;20200;-90
2022/07/06 02:14:57;;;;;;;19.37;8.60;;;17.70;58.60;;;;;;5046231;28;20247;-89
2022/07/06 02:17:38;;;;;;;10.13;6.00;;;17.60;58.60;;;;;;5048345;28;20209;-89
2022/07/06 02:20:06;;;;;;;16.40;7.57;;;17.60;59.10;;;;;;5046235;28;20608;-89
2022/07/06 02:22:33;;;;;;;11.40;6.23;;;17.60;58.40;;;;;;5045692;28;20935;-90
2022/07/06 02:25:00;;;;;;;20.77;8.40;;;17.60;58.40;;;;;;5046369;28;20282;-90
2022/07/06 02:27:27;;;;;;;12.53;6.60;;;17.60;58.60;;;;;;5047716;28;20206;-90
2022/07/06 02:29:56;;;;;;;10.43;5.70;;;17.50;58.80;;;;;;5048022;28;20302;-90
2022/07/06 02:32:23;;;;;;;12.33;6.20;;;17.50;59.20;;;;;;5046108;28;20236;-91
2022/07/06 02:34:56;;;;;;;12.10;6.20;;;17.50;59.10;;;;;;5046474;28;20283;-90
2022/07/06 02:37:24;;;;;;;12.17;5.83;;;17.50;59.50;;;;;;5048012;28;20258;-90
2022/07/06 02:39:57;;;;;;;11.40;5.83;;;17.50;59.30;;;;;;5039658;28;20204;-89
2022/07/06 02:42:24;;;;;;;9.90;5.20;;;17.40;59.30;;;;;;5045385;28;20219;-90
2022/07/06 02:45:03;;;;;;;14.60;6.60;;;17.40;58.90;;;;;;5055833;28;20651;-90
2022/07/06 02:47:30;;;;;;;12.53;6.30;;;17.50;59.40;;;;;;5058063;28;20254;-89
2022/07/06 02:49:57;;;;;;;8.50;5.10;;;17.40;58.90;;;;;;5050971;28;20228;-90
2022/07/06 02:52:24;;;;;;;10.00;5.97;;;17.40;59.00;;;;;;5048720;28;20695;-88
2022/07/06 02:54:53;;;;;;;12.00;5.83;;;17.40;59.30;;;;;;5052432;28;20240;-92
2022/07/06 02:57:21;;;;;;;11.00;5.63;;;17.40;59.60;;;;;;5051754;28;20201;-90
2022/07/06 02:59:51;;;;;;;10.87;5.97;;;17.40;59.60;;;;;;5053281;28;20207;-90
2022/07/06 03:02:20;;;;;;;12.10;6.27;;;17.30;59.40;;;;;;5051869;28;20871;-90
2022/07/06 03:04:56;;;;;;;10.80;5.63;;;17.30;59.30;;;;;;5051427;28;20691;-90
2022/07/06 03:07:25;;;;;;;21.17;8.70;;;17.30;59.40;;;;;;5049335;28;20797;-90
2022/07/06 03:09:53;;;;;;;10.83;5.97;;;17.30;59.60;;;;;;5050747;28;20220;-90
2022/07/06 03:12:20;;;;;;;13.50;6.33;;;17.20;59.40;;;;;;5047466;28;20200;-89
2022/07/06 03:14:55;;;;;;;16.07;6.07;;;17.20;59.50;;;;;;5050505;28;20282;-90
2022/07/06 03:17:26;;;;;;;10.87;5.57;;;17.20;60.20;;;;;;5051638;28;21030;-89
2022/07/06 03:19:54;;;;;;;12.10;6.30;;;17.20;60.20;;;;;;5049590;28;20695;-90
2022/07/06 03:22:21;;;;;;;13.27;6.47;;;17.10;60.00;;;;;;5051638;28;20246;-90
2022/07/06 03:24:50;;;;;;;10.33;5.83;;;17.10;59.90;;;;;;5047620;28;20790;-90
2022/07/06 03:27:17;;;;;;;10.47;5.63;;;17.10;60.00;;;;;;5051095;28;20203;-89
2022/07/06 03:29:44;;;;;;;12.33;7.17;;;17.10;60.20;;;;;;5048027;28;20323;-90
2022/07/06 03:32:14;;;;;;;11.93;5.87;;;17.10;60.20;;;;;;5051282;28;20320;-91
2022/07/06 03:34:42;;;;;;;14.90;6.87;;;17.00;59.90;;;;;;5045939;28;20300;-89
2022/07/06 03:37:09;;;;;;;12.80;6.57;;;17.00;60.00;;;;;;5050589;28;20744;-88
2022/07/06 03:39:36;;;;;;;15.43;7.07;;;17.00;60.00;;;;;;5049032;28;20206;-90
2022/07/06 03:42:04;;;;;;;15.27;6.93;;;17.00;59.90;;;;;;5049902;28;20208;-90
2022/07/06 03:44:34;;;;;;;10.73;5.27;;;17.00;60.20;;;;;;5048810;28;20786;-89
2022/07/06 03:47:05;;;;;;;13.43;5.87;;;16.90;60.40;;;;;;5050213;28;20251;-89
2022/07/06 03:49:33;;;;;;;11.83;6.67;;;16.90;60.40;;;;;;5050311;28;20319;-89
2022/07/06 03:52:01;;;;;;;14.80;7.13;;;16.90;60.10;;;;;;5050037;28;20223;-89
2022/07/06 03:54:28;;;;;;;9.40;5.80;;;16.90;60.30;;;;;;5050508;28;20207;-90
2022/07/06 03:56:56;;;;;;;24.93;9.10;;;16.90;60.30;;;;;;5048858;28;20288;-90
2022/07/06 03:59:23;;;;;;;9.53;5.63;;;16.90;60.40;;;;;;5049289;28;20694;-90
2022/07/06 04:01:52;;;;;;;11.93;6.50;;;16.90;60.50;;;;;;5050170;28;20682;-90
2022/07/06 04:04:19;;;;;;;14.13;6.93;;;16.90;60.60;;;;;;5032157;28;20204;-89
2022/07/06 04:06:47;;;;;;;13.30;6.80;;;16.90;60.70;;;;;;5033631;28;20220;-89
2022/07/06 04:09:15;;;;;;;24.93;8.80;;;16.80;60.80;;;;;;5049434;28;20700;-90
2022/07/06 04:11:42;;;;;;;17.07;8.27;;;16.80;61.00;;;;;;5051826;28;20192;-90
2022/07/06 04:14:15;;;;;;;10.63;5.80;;;16.80;61.00;;;;;;5059541;28;20214;-88
2022/07/06 04:16:43;;;;;;;16.13;7.77;;;16.80;61.60;;;;;;5057514;28;20252;-89
2022/07/06 04:19:11;;;;;;;12.60;6.87;;;16.80;61.40;;;;;;5061757;28;20835;-90
2022/07/06 04:21:38;;;;;;;10.77;6.40;;;16.80;61.60;;;;;;5056834;28;20990;-90
2022/07/06 04:24:11;;;;;;;13.60;7.73;;;16.70;61.20;;;;;;5051175;28;20245;-91
2022/07/06 04:26:48;;;;;;;23.60;9.83;;;16.80;61.60;;;;;;5045746;28;20207;-90
2022/07/06 04:29:21;;;;;;;14.47;7.23;;;16.70;62.40;;;;;;5045712;28;20580;-89
2022/07/06 04:31:48;;;;;;;13.00;7.03;;;16.70;61.90;;;;;;5049833;28;20308;-89
2022/07/06 04:34:16;;;;;;;17.57;7.93;;;16.80;61.90;;;;;;5050151;28;20614;-89
2022/07/06 04:36:45;;;;;;;20.57;8.60;;;16.70;62.20;;;;;;5047041;28;20221;-89
2022/07/06 04:39:13;;;;;;;18.50;7.70;;;16.80;62.30;;;;;;5049274;28;20201;-91
2022/07/06 04:41:43;;;;;;;12.40;7.07;;;16.70;62.20;;;;;;5048952;28;20305;-89
2022/07/06 04:44:13;;;;;;;19.77;9.40;;;16.70;62.50;;;;;;5047697;28;20208;-89
2022/07/06 04:46:41;;;;;;;16.83;7.77;;;16.70;62.50;;;;;;5042708;28;20721;-89
2022/07/06 04:49:09;;;;;;;15.43;7.70;;;16.70;62.80;;;;;;5048893;28;20999;-89
2022/07/06 04:51:36;;;;;;;14.83;7.43;;;16.70;63.00;;;;;;5046249;28;20204;-89
2022/07/06 04:54:05;;;;;;;13.93;7.40;;;16.80;63.10;;;;;;5049877;28;20910;-89
2022/07/06 04:56:32;;;;;;;20.70;9.33;;;16.70;63.10;;;;;;5046846;28;20741;-89
2022/07/06 04:59:01;;;;;;;13.27;7.30;;;16.80;63.30;;;;;;5049208;28;20238;-90
2022/07/06 05:01:31;;;;;;;15.67;8.50;;;16.80;63.60;;;;;;5045419;28;20258;-88
2022/07/06 05:03:58;;;;;;;16.03;8.10;;;16.80;63.60;;;;;;5049891;28;20257;-89
2022/07/06 05:06:25;;;;;;;12.97;7.43;;;16.80;63.50;;;;;;5032741;28;20262;-89
2022/07/06 05:09:00;;;;;;;13.30;7.57;;;16.90;63.70;;;;;;5038673;28;20260;-89
2022/07/06 05:11:27;;;;;;;15.47;7.33;;;16.90;64.00;;;;;;5034500;28;20217;-90
2022/07/06 05:13:54;;;;;;;14.07;8.20;;;16.90;63.30;;;;;;5050473;28;20297;-89
2022/07/06 05:16:23;;;;;;;33.23;13.00;;;17.00;63.20;;;;;;5045227;28;20228;-89
2022/07/06 05:18:51;;;;;;;14.80;8.90;;;16.90;63.30;;;;;;5046788;28;20648;-89
2022/07/06 05:21:18;;;;;;;15.27;8.50;;;17.00;63.40;;;;;;5047565;28;20262;-89
2022/07/06 05:23:45;;;;;;;15.77;8.70;;;17.00;63.40;;;;;;5049190;28;20208;-89
2022/07/06 05:26:12;;;;;;;24.60;10.27;;;17.10;63.40;;;;;;5045626;28;20208;-90
2022/07/06 05:28:39;;;;;;;17.93;9.13;;;17.10;63.30;;;;;;5047795;28;20635;-89
2022/07/06 05:31:09;;;;;;;18.07;9.63;;;17.10;63.30;;;;;;5037671;28;20323;-90
2022/07/06 05:33:38;;;;;;;15.37;8.80;;;17.20;63.40;;;;;;5047450;28;20210;-91
2022/07/06 05:36:05;;;;;;;20.00;10.27;;;17.20;63.60;;;;;;5048524;28;20231;-88
2022/07/06 05:38:33;;;;;;;24.60;11.83;;;17.20;63.60;;;;;;5046966;28;20201;-90
2022/07/06 05:41:01;;;;;;;19.70;10.07;;;17.20;63.80;;;;;;5050209;28;20241;-89
2022/07/06 05:43:28;;;;;;;27.53;12.13;;;17.30;64.10;;;;;;5054232;28;20311;-89
2022/07/06 05:45:57;;;;;;;16.93;9.37;;;17.30;64.20;;;;;;5053936;28;20603;-90
2022/07/06 05:51:10;;;;;;;19.83;10.87;;;17.40;64.20;;;;;;5052330;28;20277;-89
2022/07/06 05:53:37;;;;;;;20.37;10.40;;;17.50;64.70;;;;;;5052241;28;20197;-88
2022/07/06 05:56:04;;;;;;;15.53;10.17;;;17.50;64.50;;;;;;5054268;28;20273;-90
2022/07/06 05:58:31;;;;;;;18.93;10.53;;;17.60;64.70;;;;;;5048244;28;20239;-90
2022/07/06 06:00:59;;;;;;;18.77;10.67;;;17.60;64.80;;;;;;5054678;28;20243;-90
2022/07/06 06:03:26;;;;;;;17.47;8.73;;;17.70;65.10;;;;;;5050497;28;20284;-91
2022/07/06 06:05:55;;;;;;;20.30;11.40;;;17.70;64.80;;;;;;5057321;28;20204;-89
2022/07/06 06:08:26;;;;;;;15.77;9.40;;;17.80;65.00;;;;;;5051275;28;20709;-90
2022/07/06 06:10:54;;;;;;;15.27;10.17;;;17.90;65.30;;;;;;5045289;28;20236;-91
2022/07/06 06:13:22;;;;;;;19.53;9.90;;;17.90;64.90;;;;;;5044516;28;20912;-93
2022/07/06 06:15:50;;;;;;;12.33;8.80;;;18.00;64.80;;;;;;5044413;28;20663;-91
2022/07/06 06:18:18;;;;;;;19.57;10.47;;;18.10;64.60;;;;;;5048402;28;20198;-92
2022/07/06 06:20:49;;;;;;;19.63;11.07;;;18.20;64.60;;;;;;5054461;28;20209;-91
2022/07/06 06:23:16;;;;;;;16.73;10.17;;;18.20;64.70;;;;;;5047116;28;20212;-91
2022/07/06 06:25:44;;;;;;;23.33;12.23;;;18.30;64.40;;;;;;5054841;22;20620;-92
2022/07/06 06:28:12;;;;;;;17.80;9.20;;;18.40;64.70;;;;;;5049820;28;20190;-91
2022/07/06 06:30:40;;;;;;;19.20;9.30;;;18.50;65.20;;;;;;5047320;28;20348;-90
2022/07/06 06:33:09;;;;;;;22.87;10.37;;;18.60;64.20;;;;;;5048280;28;20261;-90
2022/07/06 06:35:39;;;;;;;15.60;8.57;;;18.60;64.20;;;;;;5047050;28;20667;-91
2022/07/06 06:38:07;;;;;;;13.63;8.00;;;18.70;64.30;;;;;;5037982;28;20288;-91
2022/07/06 06:41:01;;;;;;;17.33;9.43;;;18.70;64.20;;;;;;5036958;28;20298;-92
2022/07/06 06:43:29;;;;;;;19.07;9.93;;;18.80;65.00;;;;;;5038262;28;20216;-91
2022/07/06 06:45:56;;;;;;;16.83;8.90;;;18.90;64.50;;;;;;5038639;28;20263;-92
2022/07/06 06:48:24;;;;;;;16.63;9.10;;;19.00;64.40;;;;;;5038739;28;20218;-91
2022/07/06 06:51:07;;;;;;;19.10;9.43;;;19.10;64.50;;;;;;5036156;28;20847;-91
2022/07/06 06:53:52;;;;;;;16.93;9.20;;;19.10;64.80;;;;;;5036564;28;20262;-92
2022/07/06 06:56:20;;;;;;;19.07;9.43;;;19.20;64.80;;;;;;5036175;28;20208;-89
2022/07/06 06:58:59;;;;;;;17.87;9.17;;;19.30;64.30;;;;;;5036450;28;20196;-92
2022/07/06 07:01:26;;;;;;;22.77;10.63;;;19.40;64.30;;;;;;5035933;28;20214;-92
2022/07/06 07:03:54;;;;;;;14.43;7.40;;;19.40;63.70;;;;;;5036418;28;20223;-91
2022/07/06 07:06:22;;;;;;;20.97;9.40;;;19.50;63.50;;;;;;5018777;28;22232;-91
2022/07/06 07:08:53;;;;;;;16.07;7.20;;;19.60;63.50;;;;;;5038387;28;20251;-90
2022/07/06 07:11:22;;;;;;;13.17;6.93;;;19.70;63.00;;;;;;5036914;28;20703;-92
2022/07/06 07:13:51;;;;;;;12.07;6.53;;;19.70;62.50;;;;;;5036846;28;20661;-91
2022/07/06 07:16:19;;;;;;;15.10;7.07;;;19.80;62.40;;;;;;5040080;28;20204;-90
2022/07/06 07:18:47;;;;;;;16.23;7.97;;;19.90;62.30;;;;;;5038682;28;20200;-90
2022/07/06 07:21:16;;;;;;;19.23;9.17;;;19.90;62.20;;;;;;5035311;28;20754;-91
2022/07/06 07:23:43;;;;;;;22.93;10.07;;;20.00;62.30;;;;;;5034476;28;20286;-90
2022/07/06 07:26:13;;;;;;;15.27;6.67;;;20.10;62.10;;;;;;5039129;28;20289;-92
2022/07/06 07:29:10;;;;;;;17.40;7.03;;;20.10;61.30;;;;;;5036463;28;20617;-92
2022/07/06 07:31:38;;;;;;;12.93;6.33;;;20.20;61.30;;;;;;5035169;28;20745;-91
2022/07/06 07:34:05;;;;;;;16.67;7.67;;;20.20;60.80;;;;;;5035817;28;20196;-92
2022/07/06 07:36:40;;;;;;;29.90;10.53;;;20.30;60.50;;;;;;5033005;28;20211;-90
2022/07/06 07:39:07;;;;;;;11.53;6.10;;;20.40;60.40;;;;;;5045720;28;20253;-90
2022/07/06 07:41:34;;;;;;;14.13;5.93;;;20.40;60.40;;;;;;5050115;28;20203;-92
2022/07/06 07:44:02;;;;;;;14.03;6.90;;;20.50;60.50;;;;;;5050283;28;20212;-90
2022/07/06 07:46:30;;;;;;;13.30;5.53;;;20.60;60.30;;;;;;5052005;28;20209;-91
2022/07/06 07:48:57;;;;;;;10.70;4.90;;;20.60;60.20;;;;;;5050980;28;20260;-89
2022/07/06 07:51:24;;;;;;;11.40;5.17;;;20.60;60.10;;;;;;5049021;28;20285;-90
2022/07/06 07:53:51;;;;;;;12.70;5.47;;;20.70;59.90;;;;;;5045446;28;20213;-90
2022/07/06 07:56:19;;;;;;;6.87;3.47;;;20.80;59.30;;;;;;5044032;28;20689;-89
2022/07/06 07:58:52;;;;;;;8.97;4.37;;;20.90;59.20;;;;;;5051124;28;20291;-89
2022/07/06 08:01:21;;;;;;;11.90;4.47;;;20.90;59.00;;;;;;5052084;28;20235;-88
2022/07/06 08:03:48;;;;;;;12.60;5.53;;;21.00;58.60;;;;;;5046336;28;20732;-87
2022/07/06 08:06:17;;;;;;;6.23;3.53;;;21.10;58.70;;;;;;5052219;28;20200;-89
2022/07/06 08:08:44;;;;;;;13.70;5.83;;;21.20;58.60;;;;;;5051616;28;20212;-90
2022/07/06 08:11:11;;;;;;;8.77;4.40;;;21.30;58.50;;;;;;5049639;28;20682;-88
2022/07/06 08:13:38;;;;;;;12.47;5.67;;;21.40;58.30;;;;;;5050694;28;20208;-88
2022/07/06 08:16:06;;;;;;;10.83;5.30;;;21.40;58.40;;;;;;5051977;28;20291;-90
2022/07/06 08:18:35;;;;;;;8.77;4.27;;;21.50;58.40;;;;;;5037817;28;20908;-88
2022/07/06 08:21:02;;;;;;;11.50;5.83;;;21.60;58.20;;;;;;5052060;28;20196;-89
2022/07/06 08:23:29;;;;;;;11.03;6.00;;;21.70;58.10;;;;;;5047156;28;20214;-90
2022/07/06 08:25:56;;;;;;;11.60;5.43;;;21.70;57.90;;;;;;5041086;28;20364;-89
2022/07/06 08:28:23;;;;;;;13.57;6.70;;;21.70;57.70;;;;;;5043979;28;20291;-89
2022/07/06 08:30:50;;;;;;;9.17;5.17;;;21.80;57.90;;;;;;5039698;28;20224;-90
2022/07/06 08:33:18;;;;;;;12.70;7.27;;;21.90;58.00;;;;;;5040405;28;20235;-88
2022/07/06 08:35:46;;;;;;;11.40;6.57;;;21.90;57.80;;;;;;5048414;28;20285;-87
2022/07/06 08:38:16;;;;;;;15.43;6.87;;;22.00;57.60;;;;;;5047282;28;20258;-90
2022/07/06 08:40:46;;;;;;;13.53;7.03;;;22.00;57.60;;;;;;5049114;28;20239;-89
2022/07/06 08:43:14;;;;;;;12.27;7.17;;;22.00;57.30;;;;;;5050605;28;20231;-87
2022/07/06 08:45:43;;;;;;;13.43;6.50;;;22.10;57.50;;;;;;5049212;28;20242;-88
2022/07/06 08:48:11;;;;;;;9.33;6.40;;;22.20;57.50;;;;;;5051285;28;20245;-89
2022/07/06 08:50:39;;;;;;;12.13;7.00;;;22.30;57.50;;;;;;5047842;28;20601;-89
2022/07/06 08:53:08;;;;;;;10.30;6.27;;;22.40;57.60;;;;;;5050304;28;20447;-87
2022/07/06 08:55:41;;;;;;;12.57;7.13;;;22.50;57.70;;;;;;5049040;28;20208;-88
2022/07/06 08:58:08;;;;;;;11.23;5.77;;;22.60;57.10;;;;;;5035804;28;20200;-87
2022/07/06 09:00:39;;;;;;;8.27;5.20;;;22.70;57.30;;;;;;5049822;28;20247;-89
2022/07/06 09:03:07;;;;;;;11.13;5.77;;;22.80;57.20;;;;;;5050418;28;20254;-88
2022/07/06 09:05:36;;;;;;;12.80;5.57;;;22.90;57.30;;;;;;5049871;28;20214;-86
2022/07/06 09:08:08;;;;;;;9.43;5.10;;;23.00;57.00;;;;;;5053153;28;20285;-87
2022/07/06 09:10:37;;;;;;;10.90;6.27;;;23.10;56.90;;;;;;5050201;28;20221;-88
2022/07/06 09:13:05;;;;;;;7.87;4.70;;;23.10;56.80;;;;;;5050471;28;20208;-89
2022/07/06 09:15:35;;;;;;;12.10;6.10;;;23.20;56.80;;;;;;5035731;28;20208;-88
2022/07/06 09:18:04;;;;;;;14.87;7.03;;;23.30;56.70;;;;;;5039978;28;20214;-89
2022/07/06 09:20:31;;;;;;;10.77;5.87;;;23.30;56.40;;;;;;5048520;28;20283;-88
2022/07/06 09:23:04;;;;;;;7.60;4.87;;;23.40;56.30;;;;;;5048664;28;20202;-88
2022/07/06 09:25:34;;;;;;;14.50;7.10;;;23.40;55.70;;;;;;5049535;28;20208;-87
2022/07/06 09:28:05;;;;;;;15.00;7.00;;;23.50;56.20;;;;;;5050239;28;20230;-89
2022/07/06 09:30:32;;;;;;;10.20;5.80;;;23.50;56.20;;;;;;5050638;28;20897;-89
2022/07/06 09:33:00;;;;;;;9.57;5.47;;;23.60;56.30;;;;;;5050310;28;20298;-87
2022/07/06 09:35:28;;;;;;;12.10;7.13;;;23.50;56.20;;;;;;5048963;28;20904;-88
2022/07/06 09:38:04;;;;;;;9.83;6.07;;;23.60;56.20;;;;;;5050618;28;20206;-90
2022/07/06 09:40:39;;;;;;;17.30;8.23;;;23.60;55.90;;;;;;5048295;28;20714;-89
2022/07/06 09:43:14;;;;;;;11.20;5.90;;;23.60;56.00;;;;;;5049093;28;20221;-89
2022/07/06 09:45:45;;;;;;;11.07;6.57;;;23.70;55.70;;;;;;5047028;28;20213;-88
2022/07/06 09:48:14;;;;;;;11.00;6.40;;;23.60;56.10;;;;;;5048429;28;20608;-88
2022/07/06 09:50:44;;;;;;;14.27;7.40;;;23.70;56.10;;;;;;5039179;28;20601;-88
2022/07/06 09:53:12;;;;;;;12.53;7.43;;;23.80;56.60;;;;;;5028904;28;20207;-88
2022/07/06 09:55:44;;;;;;;11.63;6.90;;;23.80;55.80;;;;;;5034838;28;20323;-88
2022/07/06 09:58:11;;;;;;;13.63;6.87;;;23.90;55.80;;;;;;5047807;28;20297;-89
2022/07/06 10:00:41;;;;;;;15.27;7.27;;;24.10;56.50;;;;;;5046972;28;20204;-91
2022/07/06 10:03:09;;;;;;;13.17;7.73;;;24.10;55.80;;;;;;5049910;28;20210;-88
2022/07/06 10:05:38;;;;;;;14.47;7.63;;;24.20;55.60;;;;;;5048981;28;20200;-88
2022/07/06 10:08:09;;;;;;;17.90;8.10;;;24.30;55.80;;;;;;5045376;28;20297;-89
2022/07/06 10:10:37;;;;;;;16.63;8.00;;;24.50;55.30;;;;;;5050850;28;20673;-89
2022/07/06 10:13:07;;;;;;;17.83;5.90;;;24.60;55.20;;;;;;5047936;28;20667;-88
2022/07/06 10:15:35;;;;;;;6.03;4.73;;;24.80;55.20;;;;;;5049700;28;20196;-87
2022/07/06 10:18:04;;;;;;;9.17;5.13;;;24.90;55.20;;;;;;5047727;28;20302;-89
2022/07/06 10:20:36;;;;;;;11.43;6.23;;;25.10;54.70;;;;;;5049288;28;20218;-87
2022/07/06 10:23:07;;;;;;;7.30;5.10;;;25.30;54.60;;;;;;5048063;28;20208;-88
2022/07/06 10:25:34;;;;;;;8.70;5.23;;;25.50;53.90;;;;;;5053156;28;20269;-88
2022/07/06 10:28:03;;;;;;;12.20;6.10;;;25.60;54.40;;;;;;5040607;28;20224;-87
2022/07/06 10:30:32;;;;;;;10.27;5.47;;;25.80;54.10;;;;;;5049155;28;20228;-88
2022/07/06 10:33:01;;;;;;;8.53;4.77;;;26.00;54.00;;;;;;5049138;28;20199;-88
2022/07/06 10:35:29;;;;;;;7.97;5.07;;;26.20;53.80;;;;;;5048219;28;20204;-89
2022/07/06 10:38:07;;;;;;;25.20;6.70;;;26.40;53.40;;;;;;5046049;28;20208;-90
2022/07/06 10:43:20;;;;;;;16.43;7.33;;;26.80;52.80;;;;;;5047621;28;20213;-88
2022/07/06 10:45:55;;;;;;;9.20;5.67;;;27.00;52.70;;;;;;5048113;28;20242;-88
2022/07/06 10:48:22;;;;;;;13.73;7.07;;;27.10;52.30;;;;;;5045826;28;20296;-88
2022/07/06 10:50:51;;;;;;;10.90;5.90;;;27.30;52.40;;;;;;5049910;28;20309;-88
2022/07/06 10:53:22;;;;;;;12.10;5.77;;;27.40;52.00;;;;;;5050967;28;20216;-91
2022/07/06 10:55:51;;;;;;;7.73;5.30;;;27.50;52.10;;;;;;5047436;28;20342;-89
2022/07/06 10:58:41;;;;;;;8.43;5.53;;;27.60;51.60;;;;;;5049006;28;21006;-89
2022/07/06 11:01:10;;;;;;;9.90;5.80;;;27.70;50.60;;;;;;5036784;28;20216;-90
2022/07/06 11:03:40;;;;;;;12.40;6.53;;;27.80;51.00;;;;;;5048405;28;20240;-91
2022/07/06 11:06:09;;;;;;;10.63;4.30;;;27.80;50.70;;;;;;5040980;28;20205;-89
2022/07/06 11:08:49;;;;;;;8.17;4.60;;;27.90;50.70;;;;;;5029308;28;20213;-91
2022/07/06 11:11:19;;;;;;;9.70;4.80;;;27.90;49.40;;;;;;5034825;28;20220;-90
2022/07/06 11:13:59;;;;;;;4.83;3.37;;;28.00;49.80;;;;;;5051281;28;20234;-91
2022/07/06 11:16:33;;;;;;;11.43;5.40;;;28.00;49.40;;;;;;5051136;28;20223;-92
2022/07/06 11:19:07;;;;;;;6.63;3.53;;;28.10;49.30;;;;;;5050962;28;20226;-90
2022/07/06 11:21:44;;;;;;;13.17;5.13;;;28.20;49.60;;;;;;5048815;28;20207;-90
2022/07/06 11:24:13;;;;;;;7.30;4.07;;;28.30;49.40;;;;;;5051001;28;20214;-92
2022/07/06 11:26:43;;;;;;;9.37;4.90;;;28.30;48.90;;;;;;5050302;28;20204;-91
2022/07/06 11:29:11;;;;;;;9.80;4.33;;;28.40;48.70;;;;;;5051383;28;20575;-90
2022/07/06 11:31:42;;;;;;;10.93;5.30;;;28.50;48.30;;;;;;5050024;28;20339;-89
2022/07/06 11:34:11;;;;;;;10.23;5.63;;;28.60;48.80;;;;;;5050378;28;20253;-89
2022/07/06 11:36:39;;;;;;;7.87;4.00;;;28.70;48.90;;;;;;5050866;28;20295;-89
2022/07/06 11:39:07;;;;;;;10.00;4.83;;;28.90;48.90;;;;;;5050908;28;20185;-89
2022/07/06 11:41:35;;;;;;;11.80;4.57;;;29.00;48.70;;;;;;5049876;28;20254;-88
2022/07/06 11:44:05;;;;;;;6.97;4.57;;;29.20;48.70;;;;;;5051373;28;20211;-90
2022/07/06 11:46:34;;;;;;;11.03;4.27;;;29.20;47.80;;;;;;5050532;28;20299;-91
2022/07/06 11:49:05;;;;;;;8.97;4.77;;;29.30;47.80;;;;;;5044269;28;20205;-89
2022/07/06 11:51:35;;;;;;;4.47;3.17;;;29.40;47.10;;;;;;5044095;28;20228;-91
2022/07/06 11:54:07;;;;;;;13.67;4.53;;;29.50;47.30;;;;;;5045262;28;20244;-89
2022/07/06 11:56:36;;;;;;;9.03;4.43;;;29.50;47.10;;;;;;5049263;28;20287;-89
2022/07/06 11:59:04;;;;;;;6.37;4.40;;;29.60;46.80;;;;;;5041027;28;20285;-89
2022/07/06 12:01:32;;;;;;;7.60;4.57;;;29.70;46.20;;;;;;5031026;28;20212;-89
2022/07/06 12:04:00;;;;;;;10.77;5.07;;;29.80;46.80;;;;;;5037036;28;20204;-89
2022/07/06 12:06:29;;;;;;;7.80;4.87;;;29.80;47.00;;;;;;5050589;28;20228;-90
2022/07/06 12:09:03;;;;;;;6.00;4.00;;;29.90;46.40;;;;;;5052128;28;20200;-89
2022/07/06 12:11:32;;;;;;;7.80;4.10;;;30.00;45.80;;;;;;5050917;28;20211;-89
2022/07/06 12:14:02;;;;;;;8.63;4.00;;;30.00;46.40;;;;;;5050484;28;20640;-93
2022/07/06 12:16:36;;;;;;;8.17;4.47;;;30.00;46.00;;;;;;5049716;28;20204;-88
2022/07/06 12:19:07;;;;;;;11.03;4.27;;;30.00;45.80;;;;;;5051347;28;20192;-88
2022/07/06 12:21:36;;;;;;;8.80;3.93;;;30.10;46.40;;;;;;5048355;28;20707;-88
2022/07/06 12:24:08;;;;;;;8.30;4.07;;;30.10;46.10;;;;;;5049242;28;20265;-90
2022/07/06 12:26:40;;;;;;;7.67;3.93;;;30.20;46.00;;;;;;5048870;28;20326;-88
2022/07/06 12:29:10;;;;;;;5.63;3.20;;;30.20;44.60;;;;;;5049820;28;20298;-88
2022/07/06 12:31:43;;;;;;;6.63;3.20;;;30.20;45.50;;;;;;5049602;28;20216;-93
2022/07/06 12:34:15;;;;;;;10.33;4.13;;;30.30;44.70;;;;;;5049569;28;20265;-91
2022/07/06 12:36:57;;;;;;;7.77;3.53;;;30.30;44.70;;;;;;5033596;28;20254;-93
2022/07/06 12:39:28;;;;;;;8.47;4.30;;;30.40;44.20;;;;;;5049780;28;20204;-88
2022/07/06 12:41:57;;;;;;;8.30;3.80;;;30.40;44.10;;;;;;5051040;28;20207;-89
2022/07/06 12:44:25;;;;;;;8.33;3.93;;;30.40;44.70;;;;;;5047865;28;20204;-88
2022/07/06 12:47:07;;;;;;;4.77;2.87;;;30.50;44.80;;;;;;5049130;28;20659;-91
2022/07/06 12:49:35;;;;;;;8.33;4.30;;;30.50;43.70;;;;;;5048148;28;21762;-89
2022/07/06 12:52:10;;;;;;;8.90;4.60;;;30.50;44.00;;;;;;5043493;28;20232;-88
2022/07/06 12:54:41;;;;;;;13.13;5.50;;;30.50;43.40;;;;;;5040215;28;20289;-90
2022/07/06 12:57:12;;;;;;;8.67;3.67;;;30.60;43.80;;;;;;5049423;28;20299;-88
2022/07/06 12:59:46;;;;;;;11.27;5.50;;;30.60;43.50;;;;;;5040860;28;20204;-89